createdAt,value
2017-08-06T00:01:38.723Z,98691.23
2017-08-06T00:04:07.073Z,98691.83
2017-08-06T00:06:35.402Z,98704.44
2017-08-06T00:09:04.120Z,98704.13
2017-08-06T00:11:32.565Z,98708.68
2017-08-06T00:14:00.909Z,98709.72
2017-08-06T00:16:29.265Z,98710.91
2017-08-06T00:18:57.598Z,98710.79
2017-08-06T00:21:26.419Z,98721.05
2017-08-06T00:23:54.755Z,98723.06
2017-08-06T00:26:23.088Z,98725.19
2017-08-06T00:28:51.443Z,98722.75
2017-08-06T00:31:20.536Z,98724.66
2017-08-06T00:33:48.879Z,98729.01
2017-08-06T00:36:17.201Z,98728.19
2017-08-06T00:38:45.628Z,98735.56
2017-08-06T00:41:14.006Z,98740.45
2017-08-06T00:43:42.327Z,98730.14
2017-08-06T00:46:11.056Z,98737.50
2017-08-06T00:48:39.383Z,98736.67
2017-08-06T00:51:08.208Z,98738.20
2017-08-06T00:53:36.536Z,98742.23
2017-08-06T00:56:04.871Z,98746.00
2017-08-06T00:58:33.990Z,98735.25
2017-08-06T01:01:02.326Z,98738.41
2017-08-06T01:03:30.668Z,98732.00
2017-08-06T01:05:59.011Z,98736.33
2017-08-06T01:08:27.364Z,98737.27
2017-08-06T01:10:55.711Z,98741.89
2017-08-06T01:13:24.155Z,98741.15
2017-08-06T01:15:52.492Z,98736.67
2017-08-06T01:18:20.807Z,98745.42
2017-08-06T01:20:49.143Z,98743.58
2017-08-06T01:23:17.472Z,98741.88
2017-08-06T01:25:45.845Z,98750.73
2017-08-06T01:28:14.169Z,98749.03
2017-08-06T01:30:42.554Z,98756.66
2017-08-06T01:33:10.910Z,98763.43
2017-08-06T01:35:39.219Z,98762.17
2017-08-06T01:38:07.570Z,98767.28
2017-08-06T01:40:36.360Z,98768.86
2017-08-06T01:43:04.694Z,98767.95
2017-08-06T01:45:33.778Z,98768.95
2017-08-06T01:48:02.112Z,98768.69
2017-08-06T01:50:30.473Z,98771.95
2017-08-06T01:52:58.802Z,98768.42
2017-08-06T01:55:27.138Z,98773.55
2017-08-06T01:57:55.462Z,98772.41
2017-08-06T02:00:23.864Z,98778.67
2017-08-06T02:02:52.375Z,98778.03
2017-08-06T02:05:20.913Z,98773.63
2017-08-06T02:07:49.257Z,98781.94
2017-08-06T02:10:17.591Z,98782.82
2017-08-06T02:12:45.939Z,98783.32
2017-08-06T02:15:14.262Z,98783.34
2017-08-06T02:17:43.394Z,98780.01
2017-08-06T02:20:11.729Z,98784.48
2017-08-06T02:22:40.081Z,98786.79
2017-08-06T02:25:08.425Z,98788.33
2017-08-06T02:27:36.783Z,98790.28
2017-08-06T02:30:05.883Z,98794.31
2017-08-06T02:32:34.206Z,98785.68
2017-08-06T02:35:02.546Z,98792.06
2017-08-06T02:37:30.934Z,98787.44
2017-08-06T02:39:59.285Z,98793.66
2017-08-06T02:42:28.387Z,98797.80
2017-08-06T02:44:56.738Z,98799.05
2017-08-06T02:47:25.063Z,98798.92
2017-08-06T02:49:53.402Z,98802.00
2017-08-06T02:52:22.104Z,98803.87
2017-08-06T02:54:51.224Z,98805.18
2017-08-06T02:57:19.566Z,98806.55
2017-08-06T02:59:47.900Z,98805.70
2017-08-06T03:02:16.244Z,98810.62
2017-08-06T03:04:45.335Z,98816.81
2017-08-06T03:07:14.397Z,98818.58
2017-08-06T03:09:42.718Z,98826.52
2017-08-06T03:12:11.070Z,98826.09
2017-08-06T03:14:39.435Z,98827.31
2017-08-06T03:17:07.836Z,98827.30
2017-08-06T03:19:36.198Z,98828.73
2017-08-06T03:22:04.564Z,98829.59
2017-08-06T03:24:32.902Z,98833.71
2017-08-06T03:27:02.035Z,98831.00
2017-08-06T03:29:30.885Z,98838.15
2017-08-06T03:31:59.999Z,98830.42
2017-08-06T03:34:28.325Z,98844.00
2017-08-06T03:36:56.669Z,98841.30
2017-08-06T03:39:25.048Z,98843.64
2017-08-06T03:41:53.368Z,98851.36
2017-08-06T03:44:22.109Z,98847.77
2017-08-06T03:46:50.443Z,98846.88
2017-08-06T03:49:18.787Z,98853.02
2017-08-06T03:51:47.550Z,98854.25
2017-08-06T03:54:15.870Z,98852.14
2017-08-06T03:56:44.745Z,98853.95
2017-08-06T03:59:13.067Z,98853.47
2017-08-06T04:01:41.404Z,98852.31
2017-08-06T04:04:09.750Z,98861.01
2017-08-06T04:06:38.096Z,98860.23
2017-08-06T04:09:06.437Z,98867.16
2017-08-06T04:11:35.200Z,98869.09
2017-08-06T04:14:03.524Z,98872.86
2017-08-06T04:16:31.876Z,98877.09
2017-08-06T04:19:00.209Z,98877.59
2017-08-06T04:21:29.118Z,98881.45
2017-08-06T04:23:57.441Z,98881.52
2017-08-06T04:26:25.764Z,98882.47
2017-08-06T04:28:54.094Z,98880.78
2017-08-06T04:31:22.413Z,98880.94
2017-08-06T04:33:50.774Z,98885.80
2017-08-06T04:36:19.136Z,98889.81
2017-08-06T04:38:47.461Z,98893.55
2017-08-06T04:41:15.806Z,98894.70
2017-08-06T04:43:44.153Z,98897.92
2017-08-06T04:46:12.525Z,98902.31
2017-08-06T04:48:40.920Z,98904.06
2017-08-06T04:51:09.286Z,98899.71
2017-08-06T04:53:37.624Z,98911.14
2017-08-06T04:56:05.970Z,98907.42
2017-08-06T04:58:35.233Z,98905.69
2017-08-06T05:01:04.023Z,98908.28
2017-08-06T05:03:32.373Z,98908.41
2017-08-06T05:06:00.801Z,98906.29
2017-08-06T05:08:29.133Z,98914.93
2017-08-06T05:10:57.479Z,98908.34
2017-08-06T05:13:25.795Z,98916.43
2017-08-06T05:15:54.156Z,98908.22
2017-08-06T05:18:22.478Z,98908.61
2017-08-06T05:20:51.161Z,98909.22
2017-08-06T05:23:19.490Z,98910.53
2017-08-06T05:25:47.822Z,98917.70
2017-08-06T05:28:16.179Z,98907.33
2017-08-06T05:30:44.882Z,98909.88
2017-08-06T05:33:13.279Z,98921.86
2017-08-06T05:35:41.598Z,98923.17
2017-08-06T05:38:10.757Z,98923.38
2017-08-06T05:40:39.099Z,98927.16
2017-08-06T05:43:07.438Z,98925.34
2017-08-06T05:45:35.786Z,98927.23
2017-08-06T05:48:04.123Z,98922.39
2017-08-06T05:50:33.872Z,98922.77
2017-08-06T05:53:02.360Z,98921.23
2017-08-06T05:55:30.733Z,98922.08
2017-08-06T05:57:59.073Z,98926.90
2017-08-06T06:00:27.423Z,98926.50
2017-08-06T06:02:55.781Z,98928.73
2017-08-06T06:05:24.855Z,98926.26
2017-08-06T06:07:53.219Z,98931.96
2017-08-06T06:10:21.563Z,98932.65
2017-08-06T06:12:50.180Z,98934.85
2017-08-06T06:15:18.538Z,98930.88
2017-08-06T06:17:46.890Z,98926.44
2017-08-06T06:20:15.237Z,98926.62
2017-08-06T06:22:43.637Z,98926.62
2017-08-06T06:25:11.972Z,98932.84
2017-08-06T06:27:40.311Z,98930.70
2017-08-06T06:30:08.925Z,98938.97
2017-08-06T06:32:37.291Z,98935.95
2017-08-06T06:35:05.655Z,98936.31
2017-08-06T06:37:34.011Z,98938.54
2017-08-06T06:40:02.345Z,98944.78
2017-08-06T06:42:30.709Z,98944.84
2017-08-06T06:44:59.036Z,98946.30
2017-08-06T06:47:27.632Z,98949.48
2017-08-06T06:49:56.088Z,98945.83
2017-08-06T06:52:24.533Z,98946.89
2017-08-06T06:54:52.910Z,98952.39
2017-08-06T06:57:21.260Z,98953.78
2017-08-06T06:59:49.617Z,98951.95
2017-08-06T07:02:17.958Z,98944.59
2017-08-06T07:04:46.330Z,98951.14
2017-08-06T07:07:14.691Z,98957.24
2017-08-06T07:09:43.040Z,98956.03
2017-08-06T07:12:11.388Z,98954.45
2017-08-06T07:14:39.732Z,98956.52
2017-08-06T07:17:08.098Z,98958.55
2017-08-06T07:19:36.629Z,98961.83
2017-08-06T07:22:04.971Z,98965.47
2017-08-06T07:24:33.301Z,98970.76
2017-08-06T07:27:02.364Z,98970.58
2017-08-06T07:29:30.689Z,98964.41
2017-08-06T07:31:59.038Z,98971.23
2017-08-06T07:34:27.370Z,98966.05
2017-08-06T07:36:55.718Z,98963.30
2017-08-06T07:39:24.031Z,98967.34
2017-08-06T07:41:52.640Z,98963.91
2017-08-06T07:44:20.972Z,98964.81
2017-08-06T07:46:49.313Z,98960.94
2017-08-06T07:49:17.660Z,98969.05
2017-08-06T07:51:45.983Z,98964.48
2017-08-06T07:54:14.339Z,98963.66
2017-08-06T07:56:42.667Z,98968.73
2017-08-06T07:59:12.097Z,98967.32
2017-08-06T08:01:41.329Z,98968.95
2017-08-06T08:04:09.677Z,98971.98
2017-08-06T08:06:38.803Z,98971.69
2017-08-06T08:09:07.166Z,98974.69
2017-08-06T08:11:35.512Z,98968.97
2017-08-06T08:14:03.849Z,98970.80
2017-08-06T08:16:32.209Z,98971.08
2017-08-06T08:19:00.571Z,98969.53
2017-08-06T08:21:30.277Z,98976.70
2017-08-06T08:23:58.621Z,98977.69
2017-08-06T08:26:26.980Z,98978.25
2017-08-06T08:28:55.313Z,98975.47
2017-08-06T08:31:24.419Z,98977.55
2017-08-06T08:33:52.780Z,98977.06
2017-08-06T08:36:21.108Z,98972.02
2017-08-06T08:38:49.541Z,98973.20
2017-08-06T08:41:17.885Z,98970.91
2017-08-06T08:43:46.289Z,98976.16
2017-08-06T08:46:14.602Z,98979.14
2017-08-06T08:48:43.264Z,98972.72
2017-08-06T08:51:12.377Z,98968.52
2017-08-06T08:53:40.693Z,98967.48
2017-08-06T08:56:09.055Z,98972.63
2017-08-06T08:58:37.386Z,98970.88
2017-08-06T09:01:05.733Z,98973.45
2017-08-06T09:03:34.068Z,98972.17
2017-08-06T09:06:02.692Z,98973.67
2017-08-06T09:08:31.056Z,98968.13
2017-08-06T09:10:59.421Z,98965.69
2017-08-06T09:13:27.771Z,98969.48
2017-08-06T09:15:56.125Z,98978.19
2017-08-06T09:18:24.514Z,98973.47
2017-08-06T09:20:52.890Z,98975.44
2017-08-06T09:23:21.226Z,98970.44
2017-08-06T09:25:49.616Z,98972.08
2017-08-06T09:28:17.967Z,98971.94
2017-08-06T09:30:46.327Z,98966.47
2017-08-06T09:33:14.687Z,98965.58
2017-08-06T09:35:43.031Z,98969.56
2017-08-06T09:38:11.381Z,98968.09
2017-08-06T09:40:39.751Z,98970.85
2017-08-06T09:43:08.107Z,98968.32
2017-08-06T09:45:36.510Z,98961.91
2017-08-06T09:48:05.119Z,98972.14
2017-08-06T09:50:33.468Z,98961.41
2017-08-06T09:53:01.807Z,98958.41
2017-08-06T09:55:30.152Z,98954.75
2017-08-06T09:57:58.477Z,98952.31
2017-08-06T10:00:26.833Z,98948.59
2017-08-06T10:02:55.177Z,98946.30
2017-08-06T10:05:23.782Z,98952.13
2017-08-06T10:07:52.131Z,98956.69
2017-08-06T10:10:20.467Z,98953.88
2017-08-06T10:12:48.863Z,98951.36
2017-08-06T10:15:17.209Z,98950.94
2017-08-06T10:17:45.554Z,98946.58
2017-08-06T10:20:13.894Z,98947.36
2017-08-06T10:22:43.192Z,98951.10
2017-08-06T10:25:11.556Z,98942.91
2017-08-06T10:27:39.894Z,98944.45
2017-08-06T10:30:08.255Z,98942.52
2017-08-06T10:32:36.593Z,98948.59
2017-08-06T10:35:05.202Z,98936.77
2017-08-06T10:37:33.516Z,98945.09
2017-08-06T10:40:01.856Z,98941.97
2017-08-06T10:42:30.242Z,98937.66
2017-08-06T10:44:58.572Z,98938.48
2017-08-06T10:47:27.207Z,98940.37
2017-08-06T10:49:59.163Z,98936.52
2017-08-06T10:52:27.783Z,98940.59
2017-08-06T10:54:56.110Z,98936.02
2017-08-06T10:57:24.473Z,98929.20
2017-08-06T10:59:52.832Z,98929.31
2017-08-06T11:02:21.165Z,98926.02
2017-08-06T11:04:49.774Z,98921.86
2017-08-06T11:07:18.109Z,98924.81
2017-08-06T11:09:46.461Z,98923.89
2017-08-06T11:12:14.834Z,98921.85
2017-08-06T11:14:43.176Z,98918.47
2017-08-06T11:17:11.516Z,98915.33
2017-08-06T11:19:39.877Z,98923.79
2017-08-06T11:22:08.203Z,98920.53
2017-08-06T11:24:36.552Z,98922.22
2017-08-06T11:27:04.875Z,98921.80
2017-08-06T11:29:33.483Z,98926.77
2017-08-06T11:32:01.829Z,98919.09
2017-08-06T11:34:30.165Z,98910.23
2017-08-06T11:36:58.546Z,98900.53
2017-08-06T11:39:26.911Z,98902.45
2017-08-06T11:41:55.257Z,98902.53
2017-08-06T11:44:23.594Z,98898.91
2017-08-06T11:46:51.954Z,98900.55
2017-08-06T11:49:20.316Z,98905.88
2017-08-06T11:51:48.670Z,98894.80
2017-08-06T11:54:17.070Z,98901.34
2017-08-06T11:56:45.435Z,98898.63
2017-08-06T11:59:15.083Z,98890.99
2017-08-06T12:01:43.434Z,98895.48
2017-08-06T12:04:11.761Z,98891.00
2017-08-06T12:06:40.364Z,98889.89
2017-08-06T12:09:08.691Z,98894.31
2017-08-06T12:11:37.033Z,98891.50
2017-08-06T12:14:05.396Z,98888.17
2017-08-06T12:16:33.725Z,98897.13
2017-08-06T12:19:02.090Z,98888.17
2017-08-06T12:21:30.430Z,98884.51
2017-08-06T12:23:58.785Z,98888.23
2017-08-06T12:26:28.086Z,98885.71
2017-08-06T12:28:57.313Z,98890.11
2017-08-06T12:31:25.717Z,98890.77
2017-08-06T12:33:54.142Z,98885.91
2017-08-06T12:36:22.496Z,98884.83
2017-08-06T12:38:50.831Z,98880.50
2017-08-06T12:41:19.161Z,98877.50
2017-08-06T12:43:47.526Z,98883.39
2017-08-06T12:46:15.871Z,98884.30
2017-08-06T12:48:44.234Z,98888.14
2017-08-06T12:51:12.558Z,98889.88
2017-08-06T12:53:40.902Z,98879.83
2017-08-06T12:56:09.517Z,98883.20
2017-08-06T12:58:37.842Z,98882.64
2017-08-06T13:01:06.184Z,98886.73
2017-08-06T13:03:34.553Z,98883.54
2017-08-06T13:06:02.939Z,98888.31
2017-08-06T13:08:31.531Z,98878.99
2017-08-06T13:10:59.991Z,98881.74
2017-08-06T13:13:28.316Z,98877.44
2017-08-06T13:15:56.675Z,98878.03
2017-08-06T13:18:25.010Z,98878.59
2017-08-06T13:20:53.635Z,98870.83
2017-08-06T13:23:21.978Z,98871.91
2017-08-06T13:25:50.316Z,98870.10
2017-08-06T13:28:18.673Z,98868.06
2017-08-06T13:30:47.005Z,98872.73
2017-08-06T13:33:15.362Z,98869.28
2017-08-06T13:35:43.724Z,98872.48
2017-08-06T13:38:12.076Z,98880.47
2017-08-06T13:40:40.433Z,98872.34
2017-08-06T13:43:08.764Z,98875.61
2017-08-06T13:45:37.118Z,98863.52
2017-08-06T13:48:05.479Z,98865.14
2017-08-06T13:50:33.850Z,98864.72
2017-08-06T13:53:02.222Z,98865.13
2017-08-06T13:55:30.557Z,98864.77
2017-08-06T13:57:59.001Z,98865.24
2017-08-06T14:00:27.354Z,98856.38
2017-08-06T14:02:55.707Z,98860.64
2017-08-06T14:05:24.053Z,98857.80
2017-08-06T14:07:52.384Z,98855.48
2017-08-06T14:10:20.993Z,98850.27
2017-08-06T14:12:49.336Z,98855.18
2017-08-06T14:15:17.665Z,98849.56
2017-08-06T14:17:46.010Z,98851.89
2017-08-06T14:20:14.359Z,98854.19
2017-08-06T14:22:42.975Z,98855.94
2017-08-06T14:25:11.340Z,98858.48
2017-08-06T14:27:39.666Z,98852.70
2017-08-06T14:30:08.014Z,98850.82
2017-08-06T14:32:36.395Z,98854.06
2017-08-06T14:35:05.001Z,98860.23
2017-08-06T14:37:33.353Z,98860.19
2017-08-06T14:40:01.692Z,98855.36
2017-08-06T14:42:30.044Z,98861.55
2017-08-06T14:44:58.373Z,98868.67
2017-08-06T14:47:26.958Z,98863.83
2017-08-06T14:49:55.319Z,98863.95
2017-08-06T14:52:23.686Z,98865.97
2017-08-06T14:54:52.044Z,98869.92
2017-08-06T14:57:20.384Z,98870.11
2017-08-06T14:59:49.008Z,98870.97
2017-08-06T15:02:17.342Z,98872.71
2017-08-06T15:04:45.706Z,98874.70
2017-08-06T15:07:14.158Z,98876.19
2017-08-06T15:09:42.501Z,98876.19
2017-08-06T15:12:11.210Z,98878.19
2017-08-06T15:14:39.548Z,98873.56
2017-08-06T15:17:07.896Z,98878.11
2017-08-06T15:19:36.250Z,98875.95
2017-08-06T15:22:04.576Z,98873.60
2017-08-06T15:24:32.943Z,98874.88
2017-08-06T15:27:01.312Z,98872.34
2017-08-06T15:29:29.657Z,98874.36
2017-08-06T15:31:58.019Z,98877.25
2017-08-06T15:34:26.371Z,98867.53
2017-08-06T15:36:55.659Z,98870.14
2017-08-06T15:39:24.005Z,98870.34
2017-08-06T15:41:52.374Z,98868.16
2017-08-06T15:44:20.737Z,98866.09
2017-08-06T15:46:49.091Z,98867.83
2017-08-06T15:49:17.431Z,98857.78
2017-08-06T15:51:46.036Z,98861.25
2017-08-06T15:54:14.383Z,98860.63
2017-08-06T15:56:42.728Z,98862.76
2017-08-06T15:59:11.706Z,98861.20
2017-08-06T16:01:40.056Z,98862.55
2017-08-06T16:04:08.416Z,98866.16
2017-08-06T16:06:36.772Z,98869.55
2017-08-06T16:09:05.113Z,98863.34
2017-08-06T16:11:33.470Z,98859.85
2017-08-06T16:14:01.878Z,98865.91
2017-08-06T16:16:30.591Z,98867.17
2017-08-06T16:18:58.917Z,98866.64
2017-08-06T16:21:27.270Z,98862.61
2017-08-06T16:23:56.407Z,98858.22
2017-08-06T16:26:24.724Z,98860.88
2017-08-06T16:28:53.449Z,98857.25
2017-08-06T16:31:21.787Z,98859.69
2017-08-06T16:33:50.138Z,98857.55
2017-08-06T16:36:18.613Z,98856.70
2017-08-06T16:38:46.949Z,98860.84
2017-08-06T16:41:15.545Z,98857.91
2017-08-06T16:43:44.655Z,98850.86
2017-08-06T16:46:12.988Z,98852.91
2017-08-06T16:48:41.345Z,98849.24
2017-08-06T16:51:09.692Z,98862.54
2017-08-06T16:53:38.046Z,98851.46
2017-08-06T16:56:06.456Z,98852.11
2017-08-06T16:58:34.807Z,98853.61
2017-08-06T17:01:03.916Z,98851.14
2017-08-06T17:03:32.256Z,98852.65
2017-08-06T17:06:00.616Z,98851.72
2017-08-06T17:08:28.968Z,98855.77
2017-08-06T17:10:57.283Z,98855.37
2017-08-06T17:13:26.033Z,98853.88
2017-08-06T17:15:55.858Z,98857.22
2017-08-06T17:18:24.183Z,98858.56
2017-08-06T17:20:52.784Z,98853.69
2017-08-06T17:23:21.117Z,98855.94
2017-08-06T17:25:49.442Z,98861.45
2017-08-06T17:28:17.808Z,98860.00
2017-08-06T17:30:46.143Z,98859.85
2017-08-06T17:33:14.949Z,98859.69
2017-08-06T17:35:43.312Z,98861.42
2017-08-06T17:38:11.640Z,98860.13
2017-08-06T17:40:40.375Z,98864.13
2017-08-06T17:43:08.710Z,98864.84
2017-08-06T17:45:37.147Z,98863.47
2017-08-06T17:48:05.498Z,98866.96
2017-08-06T17:50:35.122Z,98860.30
2017-08-06T17:53:03.506Z,98861.27
2017-08-06T17:55:31.830Z,98865.23
2017-08-06T17:58:00.969Z,98863.44
2017-08-06T18:00:29.306Z,98865.98
2017-08-06T18:02:57.656Z,98868.97
2017-08-06T18:05:26.027Z,98866.92
2017-08-06T18:07:54.378Z,98868.52
2017-08-06T18:10:23.795Z,98863.51
2017-08-06T18:12:52.157Z,98875.03
2017-08-06T18:15:20.494Z,98868.02
2017-08-06T18:17:48.835Z,98860.56
2017-08-06T18:20:17.180Z,98869.16
2017-08-06T18:22:47.062Z,98867.02
2017-08-06T18:25:16.102Z,98863.28
2017-08-06T18:27:45.220Z,98863.77
2017-08-06T18:30:14.360Z,98865.73
2017-08-06T18:32:42.697Z,98865.84
2017-08-06T18:35:12.540Z,98866.30
2017-08-06T18:37:40.899Z,98865.33
2017-08-06T18:40:10.969Z,98867.17
2017-08-06T18:42:40.234Z,98866.27
2017-08-06T18:45:09.101Z,98865.39
2017-08-06T18:47:37.493Z,98863.50
2017-08-06T18:50:06.758Z,98860.08
2017-08-06T18:52:35.089Z,98869.90
2017-08-06T18:55:03.730Z,98864.89
2017-08-06T18:57:32.831Z,98868.98
2017-08-06T19:00:15.242Z,98867.56
2017-08-06T19:02:44.384Z,98876.78
2017-08-06T19:05:12.755Z,98880.92
2017-08-06T19:07:41.136Z,98881.48
2017-08-06T19:10:09.501Z,98882.11
2017-08-06T19:12:39.779Z,98887.11
2017-08-06T19:15:08.164Z,98892.33
2017-08-06T19:17:36.785Z,98891.75
2017-08-06T19:20:05.121Z,98890.22
2017-08-06T19:22:33.480Z,98891.03
2017-08-06T19:25:01.849Z,98896.39
2017-08-06T19:27:30.198Z,98900.89
2017-08-06T19:29:59.320Z,98901.38
2017-08-06T19:32:27.693Z,98909.50
2017-08-06T19:34:56.012Z,98913.66
2017-08-06T19:37:24.374Z,98912.83
2017-08-06T19:39:52.709Z,98919.48
2017-08-06T19:42:22.113Z,98915.52
2017-08-06T19:44:50.466Z,98921.25
2017-08-06T19:47:18.814Z,98916.02
2017-08-06T19:49:47.214Z,98925.43
2017-08-06T19:52:16.429Z,98917.68
2017-08-06T19:54:45.162Z,98926.22
2017-08-06T19:57:13.522Z,98929.58
2017-08-06T19:59:43.147Z,98930.11
2017-08-06T20:02:11.945Z,98936.38
2017-08-06T20:04:40.276Z,98936.84
2017-08-06T20:07:08.655Z,98933.95
2017-08-06T20:09:37.050Z,98938.45
2017-08-06T20:12:05.396Z,98943.04
2017-08-06T20:14:33.747Z,98940.41
2017-08-06T20:17:02.089Z,98935.80
2017-08-06T20:19:31.193Z,98941.68
2017-08-06T20:21:59.542Z,98941.64
2017-08-06T20:24:27.869Z,98944.09
2017-08-06T20:26:56.219Z,98943.55
2017-08-06T20:29:25.338Z,98942.34
2017-08-06T20:31:53.677Z,98948.05
2017-08-06T20:34:22.058Z,98940.63
2017-08-06T20:36:50.409Z,98943.95
2017-08-06T20:39:19.156Z,98937.56
2017-08-06T20:41:48.373Z,98946.20
2017-08-06T20:44:18.353Z,98948.16
2017-08-06T20:46:46.688Z,98947.03
2017-08-06T20:49:15.006Z,98937.76
2017-08-06T20:51:43.355Z,98946.12
2017-08-06T20:54:11.763Z,98946.23
2017-08-06T20:56:40.100Z,98949.07
2017-08-06T20:59:09.273Z,98953.22
2017-08-06T21:01:37.614Z,98948.97
2017-08-06T21:04:05.957Z,98952.31
2017-08-06T21:06:34.321Z,98945.92
2017-08-06T21:09:02.666Z,98946.98
2017-08-06T21:11:31.032Z,98945.58
2017-08-06T21:13:59.762Z,98948.03
2017-08-06T21:16:28.145Z,98944.03
2017-08-06T21:18:56.530Z,98952.03
2017-08-06T21:21:24.877Z,98949.62
2017-08-06T21:23:53.224Z,98947.30
2017-08-06T21:26:21.569Z,98950.34
2017-08-06T21:28:50.347Z,98951.44
2017-08-06T21:31:19.470Z,98949.28
2017-08-06T21:33:47.810Z,98952.66
2017-08-06T21:36:16.495Z,98952.64
2017-08-06T21:38:44.834Z,98954.99
2017-08-06T21:41:13.168Z,98958.70
2017-08-06T21:43:41.544Z,98961.33
2017-08-06T21:46:09.938Z,98963.91
2017-08-06T21:48:38.301Z,98960.59
2017-08-06T21:51:07.105Z,98963.17
2017-08-06T21:53:35.439Z,98958.22
2017-08-06T21:56:03.773Z,98958.72
2017-08-06T21:58:32.120Z,98956.31
2017-08-06T22:01:01.213Z,98954.79
2017-08-06T22:03:29.565Z,98949.33
2017-08-06T22:05:57.903Z,98951.94
2017-08-06T22:08:26.279Z,98959.97
2017-08-06T22:10:54.646Z,98962.02
2017-08-06T22:13:24.243Z,98954.45
2017-08-06T22:15:53.055Z,98955.18
2017-08-06T22:18:21.394Z,98953.27
2017-08-06T22:20:49.713Z,98950.69
2017-08-06T22:23:18.081Z,98951.89
2017-08-06T22:25:47.189Z,98958.65
2017-08-06T22:28:15.529Z,98957.17
2017-08-06T22:30:43.842Z,98949.48
2017-08-06T22:33:12.972Z,98952.93
2017-08-06T22:35:41.317Z,98950.89
2017-08-06T22:38:09.649Z,98957.13
2017-08-06T22:40:37.987Z,98946.57
2017-08-06T22:43:06.362Z,98952.63
2017-08-06T22:45:34.772Z,98948.09
2017-08-06T22:48:03.367Z,98947.87
2017-08-06T22:50:31.703Z,98942.88
2017-08-06T22:53:00.578Z,98942.13
2017-08-06T22:55:28.935Z,98947.19
2017-08-06T22:57:57.256Z,98936.08
2017-08-06T23:00:25.911Z,98941.50
2017-08-06T23:02:54.254Z,98940.38
2017-08-06T23:05:22.594Z,98940.47
2017-08-06T23:07:51.106Z,98938.28
2017-08-06T23:10:19.449Z,98930.27
2017-08-06T23:12:48.865Z,98928.61
2017-08-06T23:15:17.185Z,98934.75
2017-08-06T23:17:45.520Z,98939.43
2017-08-06T23:20:14.643Z,98931.43
2017-08-06T23:22:43.063Z,98924.77
2017-08-06T23:25:11.428Z,98924.30
2017-08-06T23:27:39.769Z,98918.78
2017-08-06T23:30:08.117Z,98913.38
2017-08-06T23:32:36.481Z,98918.09
2017-08-06T23:35:04.813Z,98921.11
2017-08-06T23:37:33.169Z,98918.36
2017-08-06T23:40:02.253Z,98911.87
2017-08-06T23:42:30.592Z,98905.66
2017-08-06T23:44:58.949Z,98911.92
2017-08-06T23:47:27.278Z,98908.46
2017-08-06T23:49:56.107Z,98909.11
2017-08-06T23:52:24.458Z,98912.30
2017-08-06T23:54:52.799Z,98907.04
2017-08-06T23:57:21.155Z,98908.63
2017-08-06T23:59:49.519Z,98899.79
